sensor_id;sensor_type;location;lat;lon;timestamp;temperature;humidity
6724;DHT22;3399;52.530;13.304;2023-02-11T00:01:39;3.60;99.90
6724;DHT22;3399;52.530;13.304;2023-02-11T00:04:05;3.60;99.90
6724;DHT22;3399;52.530;13.304;2023-02-11T00:06:32;3.50;99.90
6724;DHT22;3399;52.530;13.304;2023-02-11T00:08:58;3.50;99.90
6724;DHT22;3399;52.530;13.304;2023-02-11T00:11:24;3.50;99.90
6724;DHT22;3399;52.530;13.304;2023-02-11T00:13:54;3.50;99.90
6724;DHT22;3399;52.530;13.304;2023-02-11T00:16:20;3.50;99.90
6724;DHT22;3399;52.530;13.304;2023-02-11T00:18:46;3.40;99.90
6724;DHT22;3399;52.530;13.304;2023-02-11T00:21:18;3.50;99.90
6724;DHT22;3399;52.530;13.304;2023-02-11T00:23:44;3.50;99.90
6724;DHT22;3399;52.530;13.304;2023-02-11T00:26:12;3.60;99.90
6724;DHT22;3399;52.530;13.304;2023-02-11T00:28:39;3.60;99.90
6724;DHT22;3399;52.530;13.304;2023-02-11T00:31:05;3.70;99.90
6724;DHT22;3399;52.530;13.304;2023-02-11T00:33:30;3.70;99.90
6724;DHT22;3399;52.530;13.304;2023-02-11T00:35:55;3.70;99.90
6724;DHT22;3399;52.530;13.304;2023-02-11T00:38:21;3.80;99.90
6724;DHT22;3399;52.530;13.304;2023-02-11T00:40:47;3.80;99.90
6724;DHT22;3399;52.530;13.304;2023-02-11T00:43:12;3.80;99.90
6724;DHT22;3399;52.530;13.304;2023-02-11T00:45:38;3.80;99.90
6724;DHT22;3399;52.530;13.304;2023-02-11T00:48:03;3.90;99.90
6724;DHT22;3399;52.530;13.304;2023-02-11T00:50:29;3.90;99.90
6724;DHT22;3399;52.530;13.304;2023-02-11T00:52:54;3.90;99.90
6724;DHT22;3399;52.530;13.304;2023-02-11T00:55:20;3.90;99.90
6724;DHT22;3399;52.530;13.304;2023-02-11T00:57:45;3.90;99.90
6724;DHT22;3399;52.530;13.304;2023-02-11T01:00:12;4.00;99.90
6724;DHT22;3399;52.530;13.304;2023-02-11T01:02:38;4.00;99.90
6724;DHT22;3399;52.530;13.304;2023-02-11T01:05:04;4.00;99.90
6724;DHT22;3399;52.530;13.304;2023-02-11T01:07:30;4.00;99.90
6724;DHT22;3399;52.530;13.304;2023-02-11T01:10:01;4.00;99.90
6724;DHT22;3399;52.530;13.304;2023-02-11T01:12:26;4.00;99.90
6724;DHT22;3399;52.530;13.304;2023-02-11T01:14:52;4.00;99.90
6724;DHT22;3399;52.530;13.304;2023-02-11T01:17:18;4.00;99.90
6724;DHT22;3399;52.530;13.304;2023-02-11T01:19:43;4.00;99.90
6724;DHT22;3399;52.530;13.304;2023-02-11T01:22:09;4.00;99.90
6724;DHT22;3399;52.530;13.304;2023-02-11T01:24:34;3.90;99.90
6724;DHT22;3399;52.530;13.304;2023-02-11T01:27:00;4.00;99.90
6724;DHT22;3399;52.530;13.304;2023-02-11T01:29:25;4.00;99.90
6724;DHT22;3399;52.530;13.304;2023-02-11T01:31:50;4.00;99.90
6724;DHT22;3399;52.530;13.304;2023-02-11T01:34:16;4.00;99.90
6724;DHT22;3399;52.530;13.304;2023-02-11T01:36:42;4.10;99.90
6724;DHT22;3399;52.530;13.304;2023-02-11T01:39:07;4.10;99.90
6724;DHT22;3399;52.530;13.304;2023-02-11T01:41:34;4.10;99.90
6724;DHT22;3399;52.530;13.304;2023-02-11T01:44:25;4.10;99.90
6724;DHT22;3399;52.530;13.304;2023-02-11T01:46:51;4.10;99.90
6724;DHT22;3399;52.530;13.304;2023-02-11T01:49:24;4.10;99.90
6724;DHT22;3399;52.530;13.304;2023-02-11T01:54:23;4.20;99.90
6724;DHT22;3399;52.530;13.304;2023-02-11T01:57:07;4.20;99.90
6724;DHT22;3399;52.530;13.304;2023-02-11T02:02:51;4.30;99.90
6724;DHT22;3399;52.530;13.304;2023-02-11T02:08:02;4.30;99.90
6724;DHT22;3399;52.530;13.304;2023-02-11T02:10:30;4.30;99.90
6724;DHT22;3399;52.530;13.304;2023-02-11T02:13:01;4.30;99.90
6724;DHT22;3399;52.530;13.304;2023-02-11T02:18:06;4.40;99.90
6724;DHT22;3399;52.530;13.304;2023-02-11T02:21:12;4.40;99.90
6724;DHT22;3399;52.530;13.304;2023-02-11T02:27:11;4.40;99.90
6724;DHT22;3399;52.530;13.304;2023-02-11T02:32:55;4.40;99.90
6724;DHT22;3399;52.530;13.304;2023-02-11T02:35:32;4.40;99.90
6724;DHT22;3399;52.530;13.304;2023-02-11T02:38:12;4.50;99.90
6724;DHT22;3399;52.530;13.304;2023-02-11T02:40:56;4.50;99.90
6724;DHT22;3399;52.530;13.304;2023-02-11T02:43:25;4.50;99.90
6724;DHT22;3399;52.530;13.304;2023-02-11T02:45:51;4.50;99.90
6724;DHT22;3399;52.530;13.304;2023-02-11T02:48:30;4.70;99.90
6724;DHT22;3399;52.530;13.304;2023-02-11T02:51:24;4.90;99.90
6724;DHT22;3399;52.530;13.304;2023-02-11T02:56:47;5.00;99.90
6724;DHT22;3399;52.530;13.304;2023-02-11T02:59:27;5.00;99.90
6724;DHT22;3399;52.530;13.304;2023-02-11T03:04:55;4.90;99.90
6724;DHT22;3399;52.530;13.304;2023-02-11T03:07:43;5.00;99.90
6724;DHT22;3399;52.530;13.304;2023-02-11T03:10:14;5.10;99.90
6724;DHT22;3399;52.530;13.304;2023-02-11T03:12:43;5.10;99.90
6724;DHT22;3399;52.530;13.304;2023-02-11T03:15:09;5.10;99.90
6724;DHT22;3399;52.530;13.304;2023-02-11T03:17:39;5.20;99.90
6724;DHT22;3399;52.530;13.304;2023-02-11T03:20:09;5.30;99.90
6724;DHT22;3399;52.530;13.304;2023-02-11T03:22:40;5.20;99.90
6724;DHT22;3399;52.530;13.304;2023-02-11T03:25:07;5.20;99.90
6724;DHT22;3399;52.530;13.304;2023-02-11T03:27:42;5.20;99.90
6724;DHT22;3399;52.530;13.304;2023-02-11T03:30:15;5.10;99.90
6724;DHT22;3399;52.530;13.304;2023-02-11T03:32:57;5.20;99.90
6724;DHT22;3399;52.530;13.304;2023-02-11T03:35:49;5.20;99.90
6724;DHT22;3399;52.530;13.304;2023-02-11T03:38:27;5.20;99.90
6724;DHT22;3399;52.530;13.304;2023-02-11T03:40:56;5.20;99.90
6724;DHT22;3399;52.530;13.304;2023-02-11T03:43:44;5.20;99.90
6724;DHT22;3399;52.530;13.304;2023-02-11T03:46:11;5.20;99.90
6724;DHT22;3399;52.530;13.304;2023-02-11T03:48:42;5.20;99.90
6724;DHT22;3399;52.530;13.304;2023-02-11T03:51:11;5.00;99.90
6724;DHT22;3399;52.530;13.304;2023-02-11T03:53:39;4.90;99.90
6724;DHT22;3399;52.530;13.304;2023-02-11T03:56:08;4.90;99.90
6724;DHT22;3399;52.530;13.304;2023-02-11T03:58:35;4.90;99.90
6724;DHT22;3399;52.530;13.304;2023-02-11T04:01:01;4.80;99.90
6724;DHT22;3399;52.530;13.304;2023-02-11T04:03:27;4.80;99.90
6724;DHT22;3399;52.530;13.304;2023-02-11T04:05:53;4.80;99.90
6724;DHT22;3399;52.530;13.304;2023-02-11T04:08:19;4.80;99.90
6724;DHT22;3399;52.530;13.304;2023-02-11T04:10:45;4.80;99.90
6724;DHT22;3399;52.530;13.304;2023-02-11T04:13:13;4.80;99.90
6724;DHT22;3399;52.530;13.304;2023-02-11T04:15:39;4.80;99.90
6724;DHT22;3399;52.530;13.304;2023-02-11T04:18:05;4.80;99.90
6724;DHT22;3399;52.530;13.304;2023-02-11T04:20:30;4.80;99.90
6724;DHT22;3399;52.530;13.304;2023-02-11T04:22:56;4.80;99.90
6724;DHT22;3399;52.530;13.304;2023-02-11T04:25:21;4.80;99.90
6724;DHT22;3399;52.530;13.304;2023-02-11T04:27:47;4.80;99.90
6724;DHT22;3399;52.530;13.304;2023-02-11T04:30:12;4.80;99.90
6724;DHT22;3399;52.530;13.304;2023-02-11T04:32:38;4.80;99.90
6724;DHT22;3399;52.530;13.304;2023-02-11T04:35:04;4.80;99.90
6724;DHT22;3399;52.530;13.304;2023-02-11T04:37:30;4.80;99.90
6724;DHT22;3399;52.530;13.304;2023-02-11T04:39:55;4.80;99.90
6724;DHT22;3399;52.530;13.304;2023-02-11T04:42:20;4.80;99.90
6724;DHT22;3399;52.530;13.304;2023-02-11T04:44:46;4.80;99.90
6724;DHT22;3399;52.530;13.304;2023-02-11T04:47:11;4.80;99.90
6724;DHT22;3399;52.530;13.304;2023-02-11T04:49:39;4.70;99.90
6724;DHT22;3399;52.530;13.304;2023-02-11T04:52:05;4.70;99.90
6724;DHT22;3399;52.530;13.304;2023-02-11T04:54:30;4.70;99.90
6724;DHT22;3399;52.530;13.304;2023-02-11T04:56:56;4.70;99.90
6724;DHT22;3399;52.530;13.304;2023-02-11T04:59:21;4.70;99.90
6724;DHT22;3399;52.530;13.304;2023-02-11T05:01:47;4.70;99.90
6724;DHT22;3399;52.530;13.304;2023-02-11T05:04:13;4.70;99.90
6724;DHT22;3399;52.530;13.304;2023-02-11T05:06:39;4.70;99.90
6724;DHT22;3399;52.530;13.304;2023-02-11T05:09:05;4.70;99.90
6724;DHT22;3399;52.530;13.304;2023-02-11T05:11:30;4.70;99.90
6724;DHT22;3399;52.530;13.304;2023-02-11T05:13:56;4.70;99.90
6724;DHT22;3399;52.530;13.304;2023-02-11T05:16:22;4.70;99.90
6724;DHT22;3399;52.530;13.304;2023-02-11T05:18:47;4.70;99.90
6724;DHT22;3399;52.530;13.304;2023-02-11T05:21:16;4.70;99.90
6724;DHT22;3399;52.530;13.304;2023-02-11T05:23:42;4.70;99.90
6724;DHT22;3399;52.530;13.304;2023-02-11T05:26:08;4.70;99.90
6724;DHT22;3399;52.530;13.304;2023-02-11T05:28:33;4.80;99.90
6724;DHT22;3399;52.530;13.304;2023-02-11T05:30:59;4.70;99.90
6724;DHT22;3399;52.530;13.304;2023-02-11T05:33:25;4.70;99.90
6724;DHT22;3399;52.530;13.304;2023-02-11T05:35:51;4.70;99.90
6724;DHT22;3399;52.530;13.304;2023-02-11T05:38:16;4.70;99.90
6724;DHT22;3399;52.530;13.304;2023-02-11T05:40:42;4.70;99.90
6724;DHT22;3399;52.530;13.304;2023-02-11T05:43:07;4.80;99.90
6724;DHT22;3399;52.530;13.304;2023-02-11T05:45:33;4.80;99.90
6724;DHT22;3399;52.530;13.304;2023-02-11T05:47:59;4.80;99.90
6724;DHT22;3399;52.530;13.304;2023-02-11T05:50:25;4.80;99.90
6724;DHT22;3399;52.530;13.304;2023-02-11T05:52:50;4.80;99.90
6724;DHT22;3399;52.530;13.304;2023-02-11T05:55:16;4.70;99.90
6724;DHT22;3399;52.530;13.304;2023-02-11T05:57:41;4.80;99.90
6724;DHT22;3399;52.530;13.304;2023-02-11T06:00:08;4.70;99.90
6724;DHT22;3399;52.530;13.304;2023-02-11T06:02:33;4.70;99.90
6724;DHT22;3399;52.530;13.304;2023-02-11T06:04:59;4.70;99.90
6724;DHT22;3399;52.530;13.304;2023-02-11T06:07:24;4.80;99.90
6724;DHT22;3399;52.530;13.304;2023-02-11T06:09:50;4.80;99.90
6724;DHT22;3399;52.530;13.304;2023-02-11T06:12:16;4.80;99.90
6724;DHT22;3399;52.530;13.304;2023-02-11T06:14:41;4.80;99.90
6724;DHT22;3399;52.530;13.304;2023-02-11T06:17:07;4.80;99.90
6724;DHT22;3399;52.530;13.304;2023-02-11T06:19:32;4.80;99.90
6724;DHT22;3399;52.530;13.304;2023-02-11T06:21:58;4.80;99.90
6724;DHT22;3399;52.530;13.304;2023-02-11T06:24:24;4.80;99.90
6724;DHT22;3399;52.530;13.304;2023-02-11T06:26:50;4.90;99.90
6724;DHT22;3399;52.530;13.304;2023-02-11T06:29:15;5.00;99.90
6724;DHT22;3399;52.530;13.304;2023-02-11T06:31:41;5.00;99.90
6724;DHT22;3399;52.530;13.304;2023-02-11T06:34:07;5.00;99.90
6724;DHT22;3399;52.530;13.304;2023-02-11T06:36:33;5.00;99.90
6724;DHT22;3399;52.530;13.304;2023-02-11T06:38:59;5.00;99.90
6724;DHT22;3399;52.530;13.304;2023-02-11T06:41:25;5.00;99.90
6724;DHT22;3399;52.530;13.304;2023-02-11T06:43:51;5.00;99.90
6724;DHT22;3399;52.530;13.304;2023-02-11T06:46:17;5.30;99.90
6724;DHT22;3399;52.530;13.304;2023-02-11T06:48:42;5.30;99.90
6724;DHT22;3399;52.530;13.304;2023-02-11T06:51:09;5.40;99.90
6724;DHT22;3399;52.530;13.304;2023-02-11T06:53:38;5.40;99.90
6724;DHT22;3399;52.530;13.304;2023-02-11T06:56:07;5.30;99.90
6724;DHT22;3399;52.530;13.304;2023-02-11T06:58:33;5.30;99.90
6724;DHT22;3399;52.530;13.304;2023-02-11T07:00:59;5.30;99.90
6724;DHT22;3399;52.530;13.304;2023-02-11T07:03:25;5.30;99.90
6724;DHT22;3399;52.530;13.304;2023-02-11T07:05:50;5.30;99.90
6724;DHT22;3399;52.530;13.304;2023-02-11T07:08:16;5.30;99.90
6724;DHT22;3399;52.530;13.304;2023-02-11T07:10:42;5.30;99.90
6724;DHT22;3399;52.530;13.304;2023-02-11T07:13:07;5.30;99.90
6724;DHT22;3399;52.530;13.304;2023-02-11T07:15:33;5.30;99.90
6724;DHT22;3399;52.530;13.304;2023-02-11T07:17:58;5.40;99.90
6724;DHT22;3399;52.530;13.304;2023-02-11T07:20:25;5.40;99.90
6724;DHT22;3399;52.530;13.304;2023-02-11T07:22:50;5.40;99.90
6724;DHT22;3399;52.530;13.304;2023-02-11T07:25:16;5.40;99.90
6724;DHT22;3399;52.530;13.304;2023-02-11T07:27:41;5.50;99.90
6724;DHT22;3399;52.530;13.304;2023-02-11T07:30:07;5.50;99.90
6724;DHT22;3399;52.530;13.304;2023-02-11T07:32:33;5.50;99.90
6724;DHT22;3399;52.530;13.304;2023-02-11T07:34:58;5.60;99.90
6724;DHT22;3399;52.530;13.304;2023-02-11T07:37:24;5.60;99.90
6724;DHT22;3399;52.530;13.304;2023-02-11T07:39:49;5.60;99.90
6724;DHT22;3399;52.530;13.304;2023-02-11T07:42:15;5.70;99.90
6724;DHT22;3399;52.530;13.304;2023-02-11T07:44:40;5.80;99.90
6724;DHT22;3399;52.530;13.304;2023-02-11T07:47:06;5.80;99.90
6724;DHT22;3399;52.530;13.304;2023-02-11T07:49:31;5.80;99.90
6724;DHT22;3399;52.530;13.304;2023-02-11T07:51:57;5.80;99.90
6724;DHT22;3399;52.530;13.304;2023-02-11T07:54:22;5.80;99.90
6724;DHT22;3399;52.530;13.304;2023-02-11T07:56:48;5.80;99.90
6724;DHT22;3399;52.530;13.304;2023-02-11T07:59:13;5.80;99.90
6724;DHT22;3399;52.530;13.304;2023-02-11T08:01:39;5.80;99.90
6724;DHT22;3399;52.530;13.304;2023-02-11T08:04:04;5.90;99.90
6724;DHT22;3399;52.530;13.304;2023-02-11T08:06:32;5.90;99.90
6724;DHT22;3399;52.530;13.304;2023-02-11T08:09:02;5.90;99.90
6724;DHT22;3399;52.530;13.304;2023-02-11T08:11:28;5.90;99.90
6724;DHT22;3399;52.530;13.304;2023-02-11T08:13:55;5.90;99.90
6724;DHT22;3399;52.530;13.304;2023-02-11T08:16:26;6.00;99.90
6724;DHT22;3399;52.530;13.304;2023-02-11T08:18:54;6.00;99.90
6724;DHT22;3399;52.530;13.304;2023-02-11T08:21:20;6.00;99.90
6724;DHT22;3399;52.530;13.304;2023-02-11T08:23:46;6.00;99.90
6724;DHT22;3399;52.530;13.304;2023-02-11T08:26:17;6.00;99.90
6724;DHT22;3399;52.530;13.304;2023-02-11T08:28:44;6.00;99.90
6724;DHT22;3399;52.530;13.304;2023-02-11T08:31:17;6.00;99.90
6724;DHT22;3399;52.530;13.304;2023-02-11T08:33:44;6.00;99.90
6724;DHT22;3399;52.530;13.304;2023-02-11T08:36:13;6.00;99.90
6724;DHT22;3399;52.530;13.304;2023-02-11T08:39:06;5.90;99.90
6724;DHT22;3399;52.530;13.304;2023-02-11T08:41:42;5.90;99.90
6724;DHT22;3399;52.530;13.304;2023-02-11T08:44:08;5.90;99.90
6724;DHT22;3399;52.530;13.304;2023-02-11T08:46:34;5.90;99.90
6724;DHT22;3399;52.530;13.304;2023-02-11T08:49:00;6.00;99.90
6724;DHT22;3399;52.530;13.304;2023-02-11T08:51:27;6.00;99.90
6724;DHT22;3399;52.530;13.304;2023-02-11T08:53:55;6.00;99.90
6724;DHT22;3399;52.530;13.304;2023-02-11T08:56:21;6.00;99.90
6724;DHT22;3399;52.530;13.304;2023-02-11T08:58:48;6.00;99.90
6724;DHT22;3399;52.530;13.304;2023-02-11T09:01:16;6.00;99.90
6724;DHT22;3399;52.530;13.304;2023-02-11T09:03:42;6.00;99.90
6724;DHT22;3399;52.530;13.304;2023-02-11T09:06:10;6.00;99.90
6724;DHT22;3399;52.530;13.304;2023-02-11T09:08:37;6.10;99.90
6724;DHT22;3399;52.530;13.304;2023-02-11T09:11:03;6.00;99.90
6724;DHT22;3399;52.530;13.304;2023-02-11T09:13:29;6.00;99.90
6724;DHT22;3399;52.530;13.304;2023-02-11T09:15:56;6.00;99.90
6724;DHT22;3399;52.530;13.304;2023-02-11T09:18:21;6.00;99.90
6724;DHT22;3399;52.530;13.304;2023-02-11T09:20:47;6.00;99.90
6724;DHT22;3399;52.530;13.304;2023-02-11T09:23:12;6.10;99.90
6724;DHT22;3399;52.530;13.304;2023-02-11T09:25:39;6.00;99.90
6724;DHT22;3399;52.530;13.304;2023-02-11T09:28:05;6.10;99.90
6724;DHT22;3399;52.530;13.304;2023-02-11T09:30:31;6.10;99.90
6724;DHT22;3399;52.530;13.304;2023-02-11T09:32:56;6.10;99.90
6724;DHT22;3399;52.530;13.304;2023-02-11T09:35:22;6.10;99.90
6724;DHT22;3399;52.530;13.304;2023-02-11T09:37:47;6.20;99.90
6724;DHT22;3399;52.530;13.304;2023-02-11T09:40:13;6.20;99.90
6724;DHT22;3399;52.530;13.304;2023-02-11T09:42:49;6.20;99.90
6724;DHT22;3399;52.530;13.304;2023-02-11T09:45:21;6.20;99.90
6724;DHT22;3399;52.530;13.304;2023-02-11T09:50:27;6.30;99.90
6724;DHT22;3399;52.530;13.304;2023-02-11T09:53:23;6.30;99.90
6724;DHT22;3399;52.530;13.304;2023-02-11T09:55:58;6.40;99.90
6724;DHT22;3399;52.530;13.304;2023-02-11T09:58:27;6.40;99.90
6724;DHT22;3399;52.530;13.304;2023-02-11T10:01:26;6.40;99.90
6724;DHT22;3399;52.530;13.304;2023-02-11T10:06:48;6.40;99.90
6724;DHT22;3399;52.530;13.304;2023-02-11T10:09:25;6.40;99.90
6724;DHT22;3399;52.530;13.304;2023-02-11T10:20:15;6.30;99.90
6724;DHT22;3399;52.530;13.304;2023-02-11T10:22:47;6.20;99.90
6724;DHT22;3399;52.530;13.304;2023-02-11T10:27:45;6.20;99.90
6724;DHT22;3399;52.530;13.304;2023-02-11T10:35:21;6.20;99.90
6724;DHT22;3399;52.530;13.304;2023-02-11T10:37:47;6.20;99.90
6724;DHT22;3399;52.530;13.304;2023-02-11T10:40:18;6.20;99.90
6724;DHT22;3399;52.530;13.304;2023-02-11T10:42:48;6.30;99.90
6724;DHT22;3399;52.530;13.304;2023-02-11T10:45:20;6.30;99.90
6724;DHT22;3399;52.530;13.304;2023-02-11T10:47:47;6.30;99.90
6724;DHT22;3399;52.530;13.304;2023-02-11T10:52:44;6.30;99.90
6724;DHT22;3399;52.530;13.304;2023-02-11T10:55:16;6.30;99.90
6724;DHT22;3399;52.530;13.304;2023-02-11T10:57:59;6.30;99.90
6724;DHT22;3399;52.530;13.304;2023-02-11T11:02:53;6.40;99.90
6724;DHT22;3399;52.530;13.304;2023-02-11T11:05:27;6.40;99.90
6724;DHT22;3399;52.530;13.304;2023-02-11T11:07:56;6.40;99.90
6724;DHT22;3399;52.530;13.304;2023-02-11T11:10:37;6.40;99.90
6724;DHT22;3399;52.530;13.304;2023-02-11T11:13:26;6.40;99.90
6724;DHT22;3399;52.530;13.304;2023-02-11T11:18:34;6.40;99.90
6724;DHT22;3399;52.530;13.304;2023-02-11T11:21:02;6.40;99.90
6724;DHT22;3399;52.530;13.304;2023-02-11T11:23:30;6.50;99.90
6724;DHT22;3399;52.530;13.304;2023-02-11T11:26:09;6.40;99.90
6724;DHT22;3399;52.530;13.304;2023-02-11T11:31:24;6.40;99.90
6724;DHT22;3399;52.530;13.304;2023-02-11T11:33:52;6.40;99.90
6724;DHT22;3399;52.530;13.304;2023-02-11T11:36:38;6.40;99.90
6724;DHT22;3399;52.530;13.304;2023-02-11T11:39:26;6.40;99.90
6724;DHT22;3399;52.530;13.304;2023-02-11T11:42:25;6.40;99.90
6724;DHT22;3399;52.530;13.304;2023-02-11T11:47:47;6.40;99.90
6724;DHT22;3399;52.530;13.304;2023-02-11T11:53:04;6.40;99.90
6724;DHT22;3399;52.530;13.304;2023-02-11T11:55:46;6.50;99.90
6724;DHT22;3399;52.530;13.304;2023-02-11T11:58:19;6.50;99.90
6724;DHT22;3399;52.530;13.304;2023-02-11T12:14:55;6.80;99.90
6724;DHT22;3399;52.530;13.304;2023-02-11T12:17:41;6.80;99.90
6724;DHT22;3399;52.530;13.304;2023-02-11T12:20:25;6.90;99.90
6724;DHT22;3399;52.530;13.304;2023-02-11T12:28:18;7.00;99.90
6724;DHT22;3399;52.530;13.304;2023-02-11T12:39:39;7.00;99.90
6724;DHT22;3399;52.530;13.304;2023-02-11T12:42:32;7.00;99.90
6724;DHT22;3399;52.530;13.304;2023-02-11T12:45:26;7.00;99.90
6724;DHT22;3399;52.530;13.304;2023-02-11T12:48:32;7.10;99.90
6724;DHT22;3399;52.530;13.304;2023-02-11T12:51:15;7.10;99.90
6724;DHT22;3399;52.530;13.304;2023-02-11T12:53:54;7.10;99.90
6724;DHT22;3399;52.530;13.304;2023-02-11T12:56:30;7.10;99.90
6724;DHT22;3399;52.530;13.304;2023-02-11T12:59:01;7.10;99.90
6724;DHT22;3399;52.530;13.304;2023-02-11T13:01:33;7.10;99.90
6724;DHT22;3399;52.530;13.304;2023-02-11T13:04:07;7.10;99.90
6724;DHT22;3399;52.530;13.304;2023-02-11T13:06:47;7.20;99.90
6724;DHT22;3399;52.530;13.304;2023-02-11T13:09:25;7.20;99.90
6724;DHT22;3399;52.530;13.304;2023-02-11T13:11:57;7.20;99.90
6724;DHT22;3399;52.530;13.304;2023-02-11T13:14:45;7.20;99.90
6724;DHT22;3399;52.530;13.304;2023-02-11T13:17:22;7.20;99.90
6724;DHT22;3399;52.530;13.304;2023-02-11T13:19:53;7.10;99.90
6724;DHT22;3399;52.530;13.304;2023-02-11T13:22:25;7.20;99.90
6724;DHT22;3399;52.530;13.304;2023-02-11T13:24:58;7.30;99.90
6724;DHT22;3399;52.530;13.304;2023-02-11T13:30:27;7.50;99.90
6724;DHT22;3399;52.530;13.304;2023-02-11T13:35:39;7.60;99.90
6724;DHT22;3399;52.530;13.304;2023-02-11T13:38:23;7.70;99.90
6724;DHT22;3399;52.530;13.304;2023-02-11T13:41:18;7.70;99.90
6724;DHT22;3399;52.530;13.304;2023-02-11T13:44:03;7.70;99.90
6724;DHT22;3399;52.530;13.304;2023-02-11T13:46:51;7.70;99.90
6724;DHT22;3399;52.530;13.304;2023-02-11T13:49:41;7.60;99.90
6724;DHT22;3399;52.530;13.304;2023-02-11T13:52:24;7.50;99.90
6724;DHT22;3399;52.530;13.304;2023-02-11T13:54:53;7.40;99.90
6724;DHT22;3399;52.530;13.304;2023-02-11T13:59:47;7.30;99.90
6724;DHT22;3399;52.530;13.304;2023-02-11T14:11:42;7.30;99.90
6724;DHT22;3399;52.530;13.304;2023-02-11T14:22:19;7.20;99.90
6724;DHT22;3399;52.530;13.304;2023-02-11T14:24:52;7.20;99.90
6724;DHT22;3399;52.530;13.304;2023-02-11T14:27:24;7.20;99.90
6724;DHT22;3399;52.530;13.304;2023-02-11T14:41:25;7.10;99.90
6724;DHT22;3399;52.530;13.304;2023-02-11T14:43:56;7.10;99.90
6724;DHT22;3399;52.530;13.304;2023-02-11T14:46:23;7.10;99.90
6724;DHT22;3399;52.530;13.304;2023-02-11T14:48:53;7.10;99.90
6724;DHT22;3399;52.530;13.304;2023-02-11T14:51:23;7.10;99.90
6724;DHT22;3399;52.530;13.304;2023-02-11T14:53:54;7.00;99.90
6724;DHT22;3399;52.530;13.304;2023-02-11T14:56:24;7.00;99.90
6724;DHT22;3399;52.530;13.304;2023-02-11T14:59:15;7.00;99.90
6724;DHT22;3399;52.530;13.304;2023-02-11T15:01:45;7.00;99.90
6724;DHT22;3399;52.530;13.304;2023-02-11T15:04:25;7.10;99.90
6724;DHT22;3399;52.530;13.304;2023-02-11T15:06:52;7.10;99.90
6724;DHT22;3399;52.530;13.304;2023-02-11T15:09:20;7.10;99.90
6724;DHT22;3399;52.530;13.304;2023-02-11T15:11:50;7.10;99.90
6724;DHT22;3399;52.530;13.304;2023-02-11T15:14:27;7.10;99.90
6724;DHT22;3399;52.530;13.304;2023-02-11T15:16:57;7.10;99.90
6724;DHT22;3399;52.530;13.304;2023-02-11T15:19:28;7.10;99.90
6724;DHT22;3399;52.530;13.304;2023-02-11T15:21:55;7.10;99.90
6724;DHT22;3399;52.530;13.304;2023-02-11T15:24:29;7.20;99.90
6724;DHT22;3399;52.530;13.304;2023-02-11T15:27:03;7.20;99.90
6724;DHT22;3399;52.530;13.304;2023-02-11T15:29:44;7.20;99.90
6724;DHT22;3399;52.530;13.304;2023-02-11T15:32:24;7.30;99.90
6724;DHT22;3399;52.530;13.304;2023-02-11T15:34:51;7.30;99.90
6724;DHT22;3399;52.530;13.304;2023-02-11T15:37:24;7.30;99.90
6724;DHT22;3399;52.530;13.304;2023-02-11T15:39:51;7.40;99.90
6724;DHT22;3399;52.530;13.304;2023-02-11T15:42:18;7.30;99.90
6724;DHT22;3399;52.530;13.304;2023-02-11T15:44:44;7.30;99.90
6724;DHT22;3399;52.530;13.304;2023-02-11T15:47:11;7.30;99.90
6724;DHT22;3399;52.530;13.304;2023-02-11T15:49:38;7.30;99.90
6724;DHT22;3399;52.530;13.304;2023-02-11T15:52:08;7.30;99.90
6724;DHT22;3399;52.530;13.304;2023-02-11T15:54:34;7.30;99.90
6724;DHT22;3399;52.530;13.304;2023-02-11T15:57:09;7.30;99.90
6724;DHT22;3399;52.530;13.304;2023-02-11T15:59:37;7.30;99.90
6724;DHT22;3399;52.530;13.304;2023-02-11T16:02:23;7.30;99.90
6724;DHT22;3399;52.530;13.304;2023-02-11T16:04:55;7.30;99.90
6724;DHT22;3399;52.530;13.304;2023-02-11T16:07:45;7.30;99.90
6724;DHT22;3399;52.530;13.304;2023-02-11T16:12:54;7.40;99.90
6724;DHT22;3399;52.530;13.304;2023-02-11T16:18:03;7.30;99.90
6724;DHT22;3399;52.530;13.304;2023-02-11T16:20:30;7.30;99.90
6724;DHT22;3399;52.530;13.304;2023-02-11T16:22:56;7.30;99.90
6724;DHT22;3399;52.530;13.304;2023-02-11T16:25:22;7.30;99.90
6724;DHT22;3399;52.530;13.304;2023-02-11T16:27:50;7.30;99.90
6724;DHT22;3399;52.530;13.304;2023-02-11T16:32:48;7.30;99.90
6724;DHT22;3399;52.530;13.304;2023-02-11T16:35:13;7.20;99.90
6724;DHT22;3399;52.530;13.304;2023-02-11T16:37:39;7.30;99.90
6724;DHT22;3399;52.530;13.304;2023-02-11T16:40:05;7.30;99.90
6724;DHT22;3399;52.530;13.304;2023-02-11T16:42:30;7.30;99.90
6724;DHT22;3399;52.530;13.304;2023-02-11T16:44:56;7.30;99.90
6724;DHT22;3399;52.530;13.304;2023-02-11T16:47:26;7.30;99.90
6724;DHT22;3399;52.530;13.304;2023-02-11T16:49:53;7.30;99.90
6724;DHT22;3399;52.530;13.304;2023-02-11T16:52:20;7.30;99.90
6724;DHT22;3399;52.530;13.304;2023-02-11T16:54:46;7.30;99.90
6724;DHT22;3399;52.530;13.304;2023-02-11T16:57:16;7.30;99.90
6724;DHT22;3399;52.530;13.304;2023-02-11T16:59:43;7.20;99.90
6724;DHT22;3399;52.530;13.304;2023-02-11T17:02:15;7.30;99.90
6724;DHT22;3399;52.530;13.304;2023-02-11T17:04:43;7.30;99.90
6724;DHT22;3399;52.530;13.304;2023-02-11T17:07:09;7.20;99.90
6724;DHT22;3399;52.530;13.304;2023-02-11T17:09:34;7.20;99.90
6724;DHT22;3399;52.530;13.304;2023-02-11T17:12:03;7.20;99.90
6724;DHT22;3399;52.530;13.304;2023-02-11T17:14:28;7.20;99.90
6724;DHT22;3399;52.530;13.304;2023-02-11T17:16:55;7.20;99.90
6724;DHT22;3399;52.530;13.304;2023-02-11T17:19:21;7.20;99.90
6724;DHT22;3399;52.530;13.304;2023-02-11T17:21:49;7.20;99.90
6724;DHT22;3399;52.530;13.304;2023-02-11T17:24:15;7.20;99.90
6724;DHT22;3399;52.530;13.304;2023-02-11T17:26:42;7.20;99.90
6724;DHT22;3399;52.530;13.304;2023-02-11T17:29:09;7.10;99.90
6724;DHT22;3399;52.530;13.304;2023-02-11T17:31:35;7.10;99.90
6724;DHT22;3399;52.530;13.304;2023-02-11T17:34:01;7.10;99.90
6724;DHT22;3399;52.530;13.304;2023-02-11T17:36:27;7.10;99.90
6724;DHT22;3399;52.530;13.304;2023-02-11T17:38:55;7.10;99.90
6724;DHT22;3399;52.530;13.304;2023-02-11T17:41:22;7.10;99.90
6724;DHT22;3399;52.530;13.304;2023-02-11T17:43:48;7.10;99.90
6724;DHT22;3399;52.530;13.304;2023-02-11T17:46:13;7.10;99.90
6724;DHT22;3399;52.530;13.304;2023-02-11T17:48:39;7.10;99.90
6724;DHT22;3399;52.530;13.304;2023-02-11T17:51:15;7.10;99.90
6724;DHT22;3399;52.530;13.304;2023-02-11T17:53:43;7.10;99.90
6724;DHT22;3399;52.530;13.304;2023-02-11T17:56:09;7.10;99.90
6724;DHT22;3399;52.530;13.304;2023-02-11T17:58:34;7.10;99.90
6724;DHT22;3399;52.530;13.304;2023-02-11T18:01:00;7.10;99.90
6724;DHT22;3399;52.530;13.304;2023-02-11T18:03:25;7.10;99.90
6724;DHT22;3399;52.530;13.304;2023-02-11T18:05:51;7.20;99.90
6724;DHT22;3399;52.530;13.304;2023-02-11T18:08:16;7.20;99.90
6724;DHT22;3399;52.530;13.304;2023-02-11T18:10:42;7.20;99.90
6724;DHT22;3399;52.530;13.304;2023-02-11T18:13:07;7.20;99.90
6724;DHT22;3399;52.530;13.304;2023-02-11T18:15:33;7.20;99.90
6724;DHT22;3399;52.530;13.304;2023-02-11T18:17:58;7.20;99.90
6724;DHT22;3399;52.530;13.304;2023-02-11T18:20:24;7.20;99.90
6724;DHT22;3399;52.530;13.304;2023-02-11T18:22:50;7.20;99.90
6724;DHT22;3399;52.530;13.304;2023-02-11T18:25:15;7.20;99.90
6724;DHT22;3399;52.530;13.304;2023-02-11T18:27:42;7.30;99.90
6724;DHT22;3399;52.530;13.304;2023-02-11T18:30:17;7.30;99.90
6724;DHT22;3399;52.530;13.304;2023-02-11T18:32:43;7.30;99.90